Time;durP1;ratioP1;P1;durP2;ratioP2;P2;SDS_P1;SDS_P2;PMS_P1;PMS_P2;Temp;Humidity;BMP_temperature;BMP_pressure;BME280_temperature;BME280_humidity;BME280_pressure;Samples;Min_cycle;Max_cycle;Signal;HPM_P1;HPM_P2
2021/06/11 00:01:51;;;;;;;;;1.00;1.00;;;;;-144.77;100.00;61770.03;4954896;28;48902;-87
2021/06/11 00:04:17;;;;;;;;;1.25;1.25;;;;;-144.77;100.00;61770.03;4958153;28;46953;-87
2021/06/11 00:06:42;;;;;;;;;1.50;1.50;;;;;-144.77;100.00;61770.03;4958614;28;46916;-87
2021/06/11 00:09:10;;;;;;;;;2.00;2.00;;;;;-144.77;100.00;61770.03;4949631;28;46775;-87
2021/06/11 00:11:35;;;;;;;;;1.75;1.00;;;;;-144.77;100.00;61770.03;4954418;28;49302;-87
2021/06/11 00:14:01;;;;;;;;;2.00;2.00;;;;;-144.77;100.00;61770.03;4973506;28;47716;-87
2021/06/11 00:16:26;;;;;;;;;2.50;2.00;;;;;-144.77;100.00;61770.03;4947159;28;47118;-87
2021/06/11 00:18:52;;;;;;;;;1.00;1.00;;;;;-144.77;100.00;61770.03;4958452;28;46978;-87
2021/06/11 00:21:17;;;;;;;;;1.25;1.25;;;;;-144.77;100.00;61770.03;4958425;28;47955;-87
2021/06/11 00:23:43;;;;;;;;;2.75;1.00;;;;;-144.77;100.00;61770.03;4958266;28;46910;-87
2021/06/11 00:26:08;;;;;;;;;1.25;1.25;;;;;-144.77;100.00;61770.03;4957769;28;47017;-87
2021/06/11 00:28:34;;;;;;;;;4.50;2.00;;;;;-144.77;100.00;61770.03;4958541;28;47055;-88
2021/06/11 00:30:59;;;;;;;;;1.00;1.00;;;;;-144.77;100.00;61770.03;4958443;28;47089;-88
2021/06/11 00:33:25;;;;;;;;;1.00;1.00;;;;;-144.77;100.00;61770.03;4957841;28;46985;-88
2021/06/11 00:35:50;;;;;;;;;2.00;1.25;;;;;-144.77;100.00;61770.03;4958107;28;47122;-87
2021/06/11 00:38:16;;;;;;;;;2.00;2.00;;;;;-144.77;100.00;61770.03;4991860;28;47180;-88
2021/06/11 00:40:44;;;;;;;;;1.75;1.75;;;;;-144.77;100.00;61770.03;4955852;28;48185;-87
2021/06/11 00:43:12;;;;;;;;;3.00;2.00;;;;;-144.77;100.00;61770.03;4958182;28;47038;-87
2021/06/11 00:45:39;;;;;;;;;2.00;2.00;;;;;-144.77;100.00;61770.03;4957942;28;47003;-88
2021/06/11 00:48:05;;;;;;;;;1.00;1.00;;;;;-144.77;100.00;61770.03;4944942;28;47364;-88
2021/06/11 00:50:34;;;;;;;;;1.00;1.00;;;;;-144.77;100.00;61770.03;4956593;28;48472;-87
2021/06/11 00:53:00;;;;;;;;;1.25;1.25;;;;;-144.77;100.00;61770.03;4957916;28;47358;-88
2021/06/11 00:55:26;;;;;;;;;2.00;2.00;;;;;-144.77;100.00;61770.03;4958248;28;47078;-88
2021/06/11 00:57:51;;;;;;;;;1.00;1.00;;;;;-144.77;100.00;61770.03;4956762;28;47024;-88
2021/06/11 01:00:18;;;;;;;;;1.00;1.00;;;;;-144.77;100.00;61770.03;4956491;28;47992;-87
2021/06/11 01:02:43;;;;;;;;;2.25;2.25;;;;;-144.77;100.00;61770.03;4957064;28;46901;-87
2021/06/11 01:05:09;;;;;;;;;2.50;1.00;;;;;-144.77;100.00;61770.03;4956737;28;47135;-87
2021/06/11 01:07:37;;;;;;;;;1.00;0.75;;;;;-144.77;100.00;61770.03;4951563;28;47208;-88
2021/06/11 01:10:04;;;;;;;;;0.75;0.75;;;;;-144.77;100.00;61770.03;4952739;28;48098;-87
2021/06/11 01:12:32;;;;;;;;;1.50;0.75;;;;;-144.77;100.00;61770.03;4957921;28;47088;-87
2021/06/11 01:14:59;;;;;;;;;1.50;1.50;;;;;-144.77;100.00;61770.03;4955789;28;47097;-87
2021/06/11 01:17:24;;;;;;;;;1.00;1.00;;;;;-144.77;100.00;61770.03;4947266;28;47069;-86
2021/06/11 01:19:51;;;;;;;;;1.50;1.50;;;;;-144.77;100.00;61770.03;4956121;28;46971;-86
2021/06/11 01:22:53;;;;;;;;;1.75;1.50;;;;;-144.77;100.00;61770.03;4957946;28;46771;-87
2021/06/11 01:25:37;;;;;;;;;1.25;1.25;;;;;-144.77;100.00;61770.03;4957684;28;47166;-87
2021/06/11 01:28:06;;;;;;;;;1.00;0.75;;;;;-144.77;100.00;61770.03;4952296;28;46995;-87
2021/06/11 01:30:33;;;;;;;;;0.75;0.75;;;;;-144.77;100.00;61770.03;4950849;28;48045;-87
2021/06/11 01:33:01;;;;;;;;;0.50;0.50;;;;;-144.77;100.00;61770.03;4957257;28;46882;-87
2021/06/11 01:35:38;;;;;;;;;0.75;0.75;;;;;-144.77;100.00;61770.03;4957616;28;47014;-86
2021/06/11 01:38:05;;;;;;;;;0.75;0.75;;;;;-144.77;100.00;61770.03;4957818;28;47002;-87
2021/06/11 01:40:33;;;;;;;;;0.00;0.00;;;;;-144.77;100.00;61770.03;4957407;28;48175;-87
2021/06/11 01:43:01;;;;;;;;;1.75;1.25;;;;;-144.77;100.00;61770.03;4957510;28;47232;-87
2021/06/11 01:45:28;;;;;;;;;0.75;0.75;;;;;-144.77;100.00;61770.03;4957423;28;47134;-86
2021/06/11 01:47:55;;;;;;;;;0.75;0.75;;;;;-144.77;100.00;61770.03;4957304;28;47031;-87
2021/06/11 01:50:30;;;;;;;;;1.75;1.75;;;;;-144.77;100.00;61770.03;4944453;28;46924;-86
2021/06/11 01:52:58;;;;;;;;;3.75;0.75;;;;;-144.77;100.00;61770.03;4957254;28;47203;-87
2021/06/11 01:55:26;;;;;;;;;1.75;0.75;;;;;-144.77;100.00;61770.03;4957821;28;46969;-86
2021/06/11 01:57:53;;;;;;;;;3.25;1.25;;;;;-144.77;100.00;61770.03;4957326;28;47356;-86
2021/06/11 02:00:18;;;;;;;;;2.00;0.50;;;;;-144.77;100.00;61770.03;4957138;28;47198;-87
2021/06/11 02:02:45;;;;;;;;;0.75;0.75;;;;;-144.77;100.00;61770.03;4956496;28;47152;-86
2021/06/11 02:05:12;;;;;;;;;0.75;0.75;;;;;-144.77;100.00;61770.03;4957241;28;46960;-86
2021/06/11 02:07:39;;;;;;;;;1.00;1.00;;;;;-144.77;100.00;61770.03;4957161;28;47191;-86
2021/06/11 02:10:06;;;;;;;;;1.75;1.75;;;;;-144.77;100.00;61770.03;4947851;28;47071;-86
2021/06/11 02:12:32;;;;;;;;;2.00;1.75;;;;;-144.77;100.00;61770.03;4955304;28;47380;-86
2021/06/11 02:15:00;;;;;;;;;1.75;1.50;;;;;-144.77;100.00;61770.03;4955828;28;46929;-87
2021/06/11 02:17:26;;;;;;;;;3.25;1.25;;;;;-144.77;100.00;61770.03;4956725;28;46982;-86
2021/06/11 02:19:53;;;;;;;;;1.25;1.25;;;;;-144.77;100.00;61770.03;4956869;28;46957;-87
2021/06/11 02:22:19;;;;;;;;;1.50;1.50;;;;;-144.77;100.00;61770.03;4956754;28;46969;-87
2021/06/11 02:24:45;;;;;;;;;2.75;2.00;;;;;-144.77;100.00;61770.03;4956733;28;48000;-87
2021/06/11 02:27:12;;;;;;;;;1.50;1.50;;;;;-144.77;100.00;61770.03;4956932;28;46962;-86
2021/06/11 02:29:37;;;;;;;;;0.75;0.75;;;;;-144.77;100.00;61770.03;4956232;28;47102;-85
2021/06/11 02:32:05;;;;;;;;;1.25;0.50;;;;;-144.77;100.00;61770.03;4958321;28;47141;-86
2021/06/11 02:34:31;;;;;;;;;2.75;1.75;;;;;-144.77;100.00;61770.03;4959183;28;47060;-86
2021/06/11 02:36:58;;;;;;;;;2.25;2.00;;;;;-144.77;100.00;61770.03;4959956;28;46897;-86
2021/06/11 02:39:24;;;;;;;;;1.25;1.00;;;;;-144.77;100.00;61770.03;4959426;28;48127;-86
2021/06/11 02:41:55;;;;;;;;;2.00;2.00;;;;;-144.77;100.00;61770.03;4959757;28;47179;-86
2021/06/11 02:44:23;;;;;;;;;1.50;1.50;;;;;-144.77;100.00;61770.03;4958076;28;47100;-86
2021/06/11 02:47:04;;;;;;;;;0.75;0.75;;;;;-144.77;100.00;61770.03;4960080;28;46829;-86
2021/06/11 02:49:35;;;;;;;;;1.75;0.75;;;;;-144.77;100.00;61770.03;4958976;28;47094;-86
2021/06/11 02:52:05;;;;;;;;;2.50;2.50;;;;;-144.77;100.00;61770.03;4947718;28;46857;-85
2021/06/11 02:54:36;;;;;;;;;2.25;1.50;;;;;-144.77;100.00;61770.03;4959576;28;46877;-86
2021/06/11 02:57:08;;;;;;;;;1.25;1.25;;;;;-144.77;100.00;61770.03;4959521;28;47113;-86
2021/06/11 02:59:39;;;;;;;;;1.50;1.00;;;;;-144.77;100.00;61770.03;4959477;28;47059;-86
2021/06/11 03:02:09;;;;;;;;;1.50;1.50;;;;;-144.77;100.00;61770.03;4958896;28;46981;-86
2021/06/11 03:04:39;;;;;;;;;1.00;0.75;;;;;-144.77;100.00;61770.03;4959206;28;46973;-86
2021/06/11 03:07:05;;;;;;;;;2.75;2.00;;;;;-144.77;100.00;61770.03;4959674;28;46818;-86
2021/06/11 03:09:34;;;;;;;;;0.50;0.50;;;;;-144.77;100.00;61770.03;4959201;28;47062;-86
2021/06/11 03:12:01;;;;;;;;;1.50;1.50;;;;;-144.77;100.00;61770.03;4950328;28;47044;-86
2021/06/11 03:14:29;;;;;;;;;1.25;1.25;;;;;-144.77;100.00;61770.03;4955534;28;47053;-86
2021/06/11 03:16:59;;;;;;;;;1.25;1.25;;;;;-144.77;100.00;61770.03;4951516;28;46941;-86
2021/06/11 03:19:29;;;;;;;;;1.75;1.75;;;;;-144.77;100.00;61770.03;4958689;28;47060;-86
2021/06/11 03:22:00;;;;;;;;;1.00;1.00;;;;;-144.77;100.00;61770.03;4959267;28;46849;-86
2021/06/11 03:24:27;;;;;;;;;3.50;1.50;;;;;-144.77;100.00;61770.03;4958857;28;47137;-86
2021/06/11 03:27:04;;;;;;;;;3.50;1.50;;;;;-144.77;100.00;61770.03;4959256;28;47088;-86
2021/06/11 03:29:37;;;;;;;;;0.50;0.50;;;;;-144.77;100.00;61770.03;4959166;28;48170;-86
2021/06/11 03:32:08;;;;;;;;;2.50;1.50;;;;;-144.77;100.00;61770.03;4954575;28;47308;-86
2021/06/11 03:34:37;;;;;;;;;2.75;2.00;;;;;-144.77;100.00;61770.03;4950450;28;46956;-86
2021/06/11 03:37:06;;;;;;;;;2.00;2.00;;;;;-144.77;100.00;61770.03;4959368;28;47032;-86
2021/06/11 03:39:40;;;;;;;;;1.50;1.00;;;;;-144.77;100.00;61770.03;4958961;28;46972;-87
2021/06/11 03:42:08;;;;;;;;;2.00;2.00;;;;;-144.77;100.00;61770.03;4958568;28;47036;-86
2021/06/11 03:44:35;;;;;;;;;0.50;0.50;;;;;-144.77;100.00;61770.03;4958151;28;46944;-86
2021/06/11 03:47:02;;;;;;;;;1.00;1.00;;;;;-144.77;100.00;61770.03;4959116;28;46925;-87
2021/06/11 03:49:31;;;;;;;;;2.50;2.00;;;;;-144.77;100.00;61770.03;4958298;28;47780;-86
2021/06/11 03:51:57;;;;;;;;;4.00;2.00;;;;;-144.77;100.00;61770.03;4958797;28;46759;-87
2021/06/11 03:54:25;;;;;;;;;2.25;2.25;;;;;-144.77;100.00;61770.03;4947199;28;46967;-87
2021/06/11 03:56:54;;;;;;;;;3.00;3.00;;;;;-144.77;100.00;61770.03;4958847;28;47124;-86
2021/06/11 03:59:22;;;;;;;;;2.50;2.50;;;;;-144.77;100.00;61770.03;4958549;28;46964;-86
2021/06/11 04:01:50;;;;;;;;;4.00;3.00;;;;;-144.77;100.00;61770.03;4953752;28;47475;-87
2021/06/11 04:04:16;;;;;;;;;2.75;2.00;;;;;-144.77;100.00;61770.03;4958231;28;47091;-86
2021/06/11 04:06:49;;;;;;;;;1.25;1.25;;;;;-144.77;100.00;61770.03;4958851;28;47281;-85
2021/06/11 04:09:26;;;;;;;;;4.75;2.25;;;;;-144.77;100.00;61770.03;4958631;28;47096;-86
2021/06/11 04:12:00;;;;;;;;;3.75;1.75;;;;;-144.77;100.00;61770.03;4958778;28;47046;-86
2021/06/11 04:14:30;;;;;;;;;2.75;2.00;;;;;-144.77;100.00;61770.03;4948038;28;47164;-87
2021/06/11 04:16:57;;;;;;;;;2.75;2.50;;;;;-144.77;100.00;61770.03;4957111;28;47068;-87
2021/06/11 04:19:26;;;;;;;;;3.00;2.50;;;;;-144.77;100.00;61770.03;4958144;28;47821;-87
2021/06/11 04:21:56;;;;;;;;;2.25;2.25;;;;;-144.77;100.00;61770.03;4958508;28;47354;-87
2021/06/11 04:24:29;;;;;;;;;2.50;2.50;;;;;-144.77;100.00;61770.03;4958256;28;46829;-87
2021/06/11 04:26:57;;;;;;;;;2.00;2.00;;;;;-144.77;100.00;61770.03;4958662;28;47158;-87
2021/06/11 04:29:23;;;;;;;;;4.25;3.00;;;;;-144.77;100.00;61770.03;4958441;28;47040;-87
2021/06/11 04:31:52;;;;;;;;;5.00;4.00;;;;;-144.77;100.00;61770.03;4958454;28;47158;-87
2021/06/11 04:34:17;;;;;;;;;5.00;5.00;;;;;-144.77;100.00;61770.03;4956035;28;47117;-87
2021/06/11 04:36:44;;;;;;;;;6.00;4.75;;;;;-144.77;100.00;61770.03;4958510;28;46997;-87
2021/06/11 04:39:10;;;;;;;;;6.00;5.00;;;;;-144.77;100.00;61770.03;4958024;28;46903;-87
2021/06/11 04:41:36;;;;;;;;;4.25;2.25;;;;;-144.77;100.00;61770.03;4958145;28;46900;-87
2021/06/11 04:44:04;;;;;;;;;4.50;3.00;;;;;-144.77;100.00;61770.03;4957999;28;46890;-88
2021/06/11 04:46:30;;;;;;;;;3.25;3.25;;;;;-144.77;100.00;61770.03;4958818;28;46879;-87
2021/06/11 04:48:56;;;;;;;;;3.50;3.00;;;;;-144.77;100.00;61770.03;4957588;28;47993;-87
2021/06/11 04:51:22;;;;;;;;;4.25;3.25;;;;;-144.77;100.00;61770.03;4957716;28;47143;-87
2021/06/11 04:53:48;;;;;;;;;4.50;3.50;;;;;-144.77;100.00;61770.03;4957608;28;47067;-87
2021/06/11 04:56:13;;;;;;;;;5.00;4.00;;;;;-144.77;100.00;61770.03;4946546;28;47160;-87
2021/06/11 04:58:40;;;;;;;;;3.75;3.75;;;;;-144.77;100.00;61770.03;4958139;28;47007;-87
2021/06/11 05:01:07;;;;;;;;;5.75;2.50;;;;;-144.77;100.00;61770.03;4948872;28;46869;-87
2021/06/11 05:03:33;;;;;;;;;2.50;2.00;;;;;-144.77;100.00;61770.03;4957424;28;47188;-87
2021/06/11 05:06:01;;;;;;;;;5.00;3.00;;;;;-144.77;100.00;61770.03;4957599;28;47450;-87
2021/06/11 05:08:27;;;;;;;;;2.50;1.50;;;;;-144.77;100.00;61770.03;4957816;28;47273;-87
2021/06/11 05:10:54;;;;;;;;;3.25;3.25;;;;;-144.77;100.00;61770.03;4957187;28;46996;-87
2021/06/11 05:13:19;;;;;;;;;3.00;3.00;;;;;-144.77;100.00;61770.03;4953294;28;47090;-87
2021/06/11 05:15:45;;;;;;;;;1.50;1.50;;;;;-144.77;100.00;61770.03;4949425;28;46901;-86
2021/06/11 05:18:11;;;;;;;;;3.50;3.00;;;;;-144.77;100.00;61770.03;4957300;28;46927;-87
2021/06/11 05:20:38;;;;;;;;;4.25;3.25;;;;;-144.77;100.00;61770.03;4956348;28;47861;-87
2021/06/11 05:23:04;;;;;;;;;3.25;2.25;;;;;-144.77;100.00;61770.03;4957557;28;47027;-86
2021/06/11 05:25:30;;;;;;;;;1.50;1.50;;;;;-144.77;100.00;61770.03;4956822;28;47252;-87
2021/06/11 05:27:55;;;;;;;;;3.00;1.50;;;;;-144.77;100.00;61770.03;4957513;28;47944;-85
2021/06/11 05:30:23;;;;;;;;;4.50;3.00;;;;;-144.77;100.00;61770.03;4957253;28;46909;-86
2021/06/11 05:32:49;;;;;;;;;4.25;3.00;;;;;-144.77;100.00;61770.03;4957268;28;46960;-84
2021/06/11 05:35:15;;;;;;;;;4.00;2.75;;;;;-144.77;100.00;61770.03;4957496;28;47018;-84
2021/06/11 05:37:41;;;;;;;;;2.75;2.75;;;;;-144.77;100.00;61770.03;4945757;28;47059;-84
2021/06/11 05:40:07;;;;;;;;;1.50;1.50;;;;;-144.77;100.00;61770.03;4957574;28;46827;-86
2021/06/11 05:42:33;;;;;;;;;3.00;2.75;;;;;-144.77;100.00;61770.03;4957990;28;47162;-86
2021/06/11 05:44:59;;;;;;;;;2.50;2.50;;;;;-144.77;100.00;61770.03;4943682;28;46994;-87
2021/06/11 05:47:25;;;;;;;;;2.75;2.00;;;;;-144.77;100.00;61770.03;4944032;28;48027;-86
2021/06/11 05:49:50;;;;;;;;;1.50;1.50;;;;;-144.77;100.00;61770.03;4957453;28;47121;-87
2021/06/11 05:52:16;;;;;;;;;4.50;2.50;;;;;-144.77;100.00;61770.03;4957518;28;47039;-85
2021/06/11 05:54:41;;;;;;;;;3.25;2.50;;;;;-144.77;100.00;61770.03;4957588;28;47123;-86
2021/06/11 05:57:07;;;;;;;;;3.00;3.00;;;;;-144.77;100.00;61770.03;4957132;28;47326;-86
2021/06/11 05:59:32;;;;;;;;;3.50;2.25;;;;;-144.77;100.00;61770.03;4956644;28;46999;-87
2021/06/11 06:01:58;;;;;;;;;3.00;3.00;;;;;-144.77;100.00;61770.03;4956100;28;47061;-86
2021/06/11 06:04:23;;;;;;;;;2.75;1.75;;;;;-144.77;100.00;61770.03;4956793;28;47084;-87
2021/06/11 06:06:49;;;;;;;;;3.50;3.50;;;;;-144.77;100.00;61770.03;4954223;28;47008;-83
2021/06/11 06:09:15;;;;;;;;;1.75;1.75;;;;;-144.77;100.00;61770.03;4957107;28;47102;-83
2021/06/11 06:11:40;;;;;;;;;2.50;2.25;;;;;-144.77;100.00;61770.03;4957169;28;46925;-85
2021/06/11 06:14:06;;;;;;;;;3.25;1.00;;;;;-144.77;100.00;61770.03;4956912;28;47211;-87
2021/06/11 06:16:32;;;;;;;;;2.75;2.75;;;;;-144.77;100.00;61770.03;4954060;28;47874;-88
2021/06/11 06:18:58;;;;;;;;;2.00;2.00;;;;;-144.77;100.00;61770.03;4956433;28;46925;-87
2021/06/11 06:21:24;;;;;;;;;1.75;1.75;;;;;-144.77;100.00;61770.03;4957234;28;46911;-87
2021/06/11 06:23:50;;;;;;;;;1.75;1.75;;;;;-144.77;100.00;61770.03;4956983;28;47351;-87
2021/06/11 06:26:16;;;;;;;;;3.75;2.00;;;;;-144.77;100.00;61770.03;4956454;28;48001;-86
2021/06/11 06:28:42;;;;;;;;;1.75;1.25;;;;;-144.77;100.00;61770.03;4945941;28;47128;-87
2021/06/11 06:31:07;;;;;;;;;4.00;2.75;;;;;-144.77;100.00;61770.03;4956819;28;46835;-87
2021/06/11 06:33:34;;;;;;;;;4.50;2.75;;;;;-144.77;100.00;61770.03;4956633;28;47212;-87
2021/06/11 06:35:59;;;;;;;;;3.00;2.00;;;;;-144.77;100.00;61770.03;4956659;28;47217;-87
2021/06/11 06:38:25;;;;;;;;;1.75;1.50;;;;;-144.77;100.00;61770.03;4956806;28;47017;-87
2021/06/11 06:40:59;;;;;;;;;2.00;2.00;;;;;-144.77;100.00;61770.03;4956446;28;47036;-87
2021/06/11 06:43:24;;;;;;;;;2.00;2.00;;;;;-144.77;100.00;61770.03;4957149;28;47002;-86
2021/06/11 06:45:50;;;;;;;;;2.75;1.75;;;;;-144.77;100.00;61770.03;4956316;28;46813;-86
2021/06/11 06:48:16;;;;;;;;;3.25;2.75;;;;;-144.77;100.00;61770.03;4944440;28;47063;-87
2021/06/11 06:50:41;;;;;;;;;3.75;2.00;;;;;-144.77;100.00;61770.03;4956473;28;46949;-87
2021/06/11 06:53:10;;;;;;;;;4.50;3.00;;;;;-144.77;100.00;61770.03;4956602;28;47295;-86
2021/06/11 06:55:37;;;;;;;;;3.75;2.50;;;;;-144.77;100.00;61770.03;4956493;28;48055;-88
2021/06/11 06:58:02;;;;;;;;;3.25;3.25;;;;;-144.77;100.00;61770.03;4952470;28;46958;-87
2021/06/11 07:00:28;;;;;;;;;2.00;2.00;;;;;-144.77;100.00;61770.03;4951223;28;46976;-87
2021/06/11 07:02:54;;;;;;;;;3.00;2.25;;;;;-144.77;100.00;61770.03;4950704;28;46940;-89
2021/06/11 07:05:19;;;;;;;;;2.25;1.75;;;;;-144.77;100.00;61770.03;4954968;28;47012;-87
2021/06/11 07:07:45;;;;;;;;;3.25;3.25;;;;;-144.77;100.00;61770.03;4952563;28;46803;-88
2021/06/11 07:10:11;;;;;;;;;3.00;3.00;;;;;-144.77;100.00;61770.03;4947250;28;47046;-87
2021/06/11 07:12:36;;;;;;;;;4.25;2.75;;;;;-144.77;100.00;61770.03;4956340;28;46784;-88
2021/06/11 07:15:04;;;;;;;;;4.50;2.50;;;;;-144.77;100.00;61770.03;4953621;28;46929;-89
2021/06/11 07:17:29;;;;;;;;;3.50;3.25;;;;;-144.77;100.00;61770.03;4954861;28;46964;-87
2021/06/11 07:19:55;;;;;;;;;3.00;2.25;;;;;-144.77;100.00;61770.03;4974384;28;46940;-88
2021/06/11 07:22:21;;;;;;;;;2.50;2.00;;;;;-144.77;100.00;61770.03;4957808;28;47319;-88
2021/06/11 07:24:46;;;;;;;;;2.25;2.00;;;;;-144.77;100.00;61770.03;4958951;28;47056;-91
2021/06/11 07:27:12;;;;;;;;;1.50;1.50;;;;;-144.77;100.00;61770.03;4958895;28;47197;-86
2021/06/11 07:29:43;;;;;;;;;0.00;0.00;;;;;-144.77;100.00;61770.03;4946208;28;46991;-86
2021/06/11 07:32:10;;;;;;;;;1.75;1.75;;;;;-144.77;100.00;61770.03;4959091;28;46912;-86
2021/06/11 07:34:36;;;;;;;;;1.00;1.00;;;;;-144.77;100.00;61770.03;4959043;28;47119;-91
2021/06/11 07:37:02;;;;;;;;;1.00;1.00;;;;;-144.77;100.00;61770.03;4958143;28;46864;-91
2021/06/11 07:39:27;;;;;;;;;2.00;1.00;;;;;-144.77;100.00;61770.03;4974051;28;47189;-91
2021/06/11 07:41:54;;;;;;;;;1.00;1.00;;;;;-144.77;100.00;61770.03;4959435;28;47039;-77
2021/06/11 07:44:21;;;;;;;;;2.75;1.00;;;;;-144.77;100.00;61770.03;4959054;28;47107;-91
2021/06/11 07:46:47;;;;;;;;;2.00;2.00;;;;;-144.77;100.00;61770.03;4959514;28;46988;-90
2021/06/11 07:49:14;;;;;;;;;2.00;1.00;;;;;-144.77;100.00;61770.03;4959037;28;47046;-91
2021/06/11 07:51:40;;;;;;;;;1.25;1.00;;;;;-144.77;100.00;61770.03;4959714;28;47087;-91
2021/06/11 07:54:07;;;;;;;;;2.75;1.50;;;;;-144.77;100.00;61770.03;4959514;28;47910;-89
2021/06/11 07:56:33;;;;;;;;;3.00;1.00;;;;;-144.77;100.00;61770.03;4959456;28;47047;-91
2021/06/11 07:58:59;;;;;;;;;3.50;2.00;;;;;-144.77;100.00;61770.03;4959276;28;47079;-91
2021/06/11 08:01:26;;;;;;;;;2.50;1.75;;;;;-144.77;100.00;61770.03;4971181;28;47177;-91
2021/06/11 08:03:52;;;;;;;;;2.25;1.25;;;;;-144.77;100.00;61770.03;4957529;28;48882;-92
2021/06/11 08:06:18;;;;;;;;;4.25;2.00;;;;;-144.77;100.00;61770.03;4974458;28;46963;-92
2021/06/11 08:08:43;;;;;;;;;1.75;1.75;;;;;-144.77;100.00;61770.03;4957618;28;46918;-90
2021/06/11 08:11:09;;;;;;;;;2.00;1.00;;;;;-144.77;100.00;61770.03;4959144;28;46826;-91
2021/06/11 08:13:34;;;;;;;;;3.50;2.00;;;;;-144.77;100.00;61770.03;4953685;28;49245;-91
2021/06/11 08:16:00;;;;;;;;;2.00;2.00;;;;;-144.77;100.00;61770.03;4940361;28;47051;-91
2021/06/11 08:18:25;;;;;;;;;2.00;1.00;;;;;-144.77;100.00;61770.03;4971318;28;46972;-90
2021/06/11 08:20:51;;;;;;;;;9.00;3.00;;;;;-144.77;100.00;61770.03;4958953;28;47055;-90
2021/06/11 08:23:17;;;;;;;;;3.25;1.25;;;;;-144.77;100.00;61770.03;4958651;28;47116;-90
2021/06/11 08:25:42;;;;;;;;;2.00;2.00;;;;;-144.77;100.00;61770.03;4957133;28;47117;-90
2021/06/11 08:28:08;;;;;;;;;1.00;1.00;;;;;-144.77;100.00;61770.03;4958837;28;47010;-92
2021/06/11 08:30:34;;;;;;;;;3.00;3.00;;;;;-144.77;100.00;61770.03;4954042;28;47107;-91
2021/06/11 08:33:00;;;;;;;;;5.25;3.00;;;;;-144.77;100.00;61770.03;4956442;28;46943;-91
2021/06/11 08:35:27;;;;;;;;;2.00;1.75;;;;;-144.77;100.00;61770.03;4957664;28;47564;-90
2021/06/11 08:37:53;;;;;;;;;3.00;2.00;;;;;-144.77;100.00;61770.03;4958444;28;46860;-90
2021/06/11 08:40:18;;;;;;;;;3.00;1.75;;;;;-144.77;100.00;61770.03;4958669;28;46834;-90
2021/06/11 08:42:46;;;;;;;;;2.00;1.50;;;;;-144.77;100.00;61770.03;4958152;28;47015;-90
2021/06/11 08:45:12;;;;;;;;;3.25;1.25;;;;;-144.77;100.00;61770.03;4958356;28;47379;-90
2021/06/11 08:47:39;;;;;;;;;2.25;1.00;;;;;-144.77;100.00;61770.03;4958215;28;46902;-91
2021/06/11 08:50:06;;;;;;;;;1.25;1.25;;;;;-144.77;100.00;61770.03;4958749;28;46871;-90
2021/06/11 08:52:31;;;;;;;;;2.00;2.00;;;;;-144.77;100.00;61770.03;4958336;28;46995;-91
2021/06/11 08:54:57;;;;;;;;;1.00;1.00;;;;;-144.77;100.00;61770.03;4958549;28;46957;-90
2021/06/11 08:57:24;;;;;;;;;2.75;2.00;;;;;-144.77;100.00;61770.03;4951201;28;46890;-91
2021/06/11 08:59:52;;;;;;;;;2.00;2.00;;;;;-144.77;100.00;61770.03;4966347;28;47055;-90
2021/06/11 09:02:18;;;;;;;;;2.75;1.25;;;;;-144.77;100.00;61770.03;4946534;28;47035;-89
2021/06/11 09:04:57;;;;;;;;;3.00;2.75;;;;;-144.77;100.00;61770.03;4954582;28;47680;-90
2021/06/11 09:07:33;;;;;;;;;3.25;2.25;;;;;-144.77;100.00;61770.03;4958970;28;46870;-94
2021/06/11 09:10:07;;;;;;;;;1.75;1.75;;;;;-144.77;100.00;61770.03;4957425;28;47328;-91
2021/06/11 09:12:42;;;;;;;;;2.50;2.00;;;;;-144.77;100.00;61770.03;4958290;28;47095;-90
2021/06/11 09:15:19;;;;;;;;;2.75;2.00;;;;;-144.77;100.00;61770.03;4956238;28;47634;-91
2021/06/11 09:17:49;;;;;;;;;2.75;2.00;;;;;-144.77;100.00;61770.03;4958359;28;46803;-90
2021/06/11 09:20:17;;;;;;;;;2.00;1.00;;;;;-144.77;100.00;61770.03;4954738;28;46952;-90
2021/06/11 09:22:54;;;;;;;;;4.00;2.25;;;;;-144.77;100.00;61770.03;4953074;28;48485;-91
2021/06/11 09:25:29;;;;;;;;;5.75;3.25;;;;;-144.77;100.00;61770.03;4958235;28;46952;-89
2021/06/11 09:27:59;;;;;;;;;2.00;2.00;;;;;-144.77;100.00;61770.03;4968538;28;46930;-90
2021/06/11 09:30:32;;;;;;;;;2.75;2.00;;;;;-144.77;100.00;61770.03;4973170;28;47156;-90
2021/06/11 09:33:11;;;;;;;;;3.25;2.50;;;;;-144.77;100.00;61770.03;4956556;28;48549;-90
2021/06/11 09:35:41;;;;;;;;;3.25;3.25;;;;;-144.77;100.00;61770.03;4972614;28;47107;-91
2021/06/11 09:38:15;;;;;;;;;3.00;3.00;;;;;-144.77;100.00;61770.03;4956683;28;47037;-91
2021/06/11 09:40:43;;;;;;;;;5.75;3.50;;;;;-144.77;100.00;61770.03;4956950;28;47083;-91
2021/06/11 09:43:10;;;;;;;;;4.75;3.75;;;;;-144.77;100.00;61770.03;4958114;28;47870;-91
2021/06/11 09:45:36;;;;;;;;;3.50;3.25;;;;;-144.77;100.00;61770.03;4958368;28;47122;-91
2021/06/11 09:48:01;;;;;;;;;4.00;4.00;;;;;-144.77;100.00;61770.03;4958025;28;46837;-90
2021/06/11 09:50:33;;;;;;;;;5.00;4.25;;;;;-144.77;100.00;61770.03;4956794;28;46881;-91
2021/06/11 09:53:10;;;;;;;;;3.75;3.00;;;;;-144.77;100.00;61770.03;4957812;28;47004;-90
2021/06/11 09:55:42;;;;;;;;;4.00;3.00;;;;;-144.77;100.00;61770.03;4956344;28;47167;-91
2021/06/11 09:58:18;;;;;;;;;6.00;3.25;;;;;-144.77;100.00;61770.03;4957763;28;47043;-90
2021/06/11 10:01:02;;;;;;;;;4.25;4.00;;;;;-144.77;100.00;61770.03;4950375;28;46964;-92
2021/06/11 10:03:31;;;;;;;;;4.25;4.25;;;;;-144.77;100.00;61770.03;4953285;28;48446;-90
2021/06/11 10:05:59;;;;;;;;;3.75;3.50;;;;;-144.77;100.00;61770.03;4973157;28;47652;-90
2021/06/11 10:08:25;;;;;;;;;4.00;3.25;;;;;-144.77;100.00;61770.03;4957951;28;46851;-91
2021/06/11 10:10:52;;;;;;;;;4.00;3.75;;;;;-144.77;100.00;61770.03;4958540;28;47034;-90
2021/06/11 10:13:20;;;;;;;;;3.50;3.00;;;;;-144.77;100.00;61770.03;4957484;28;47063;-89
2021/06/11 10:15:48;;;;;;;;;5.50;4.25;;;;;-144.77;100.00;61770.03;4963384;28;47082;-91
2021/06/11 10:18:14;;;;;;;;;3.00;3.00;;;;;-144.77;100.00;61770.03;4956722;28;46867;-92
2021/06/11 10:20:41;;;;;;;;;4.50;4.50;;;;;-144.77;100.00;61770.03;4957885;28;46774;-92
2021/06/11 10:23:10;;;;;;;;;4.25;4.00;;;;;-144.77;100.00;61770.03;4956534;28;48499;-91
2021/06/11 10:25:40;;;;;;;;;4.50;4.00;;;;;-144.77;100.00;61770.03;4957184;28;46886;-91
2021/06/11 10:28:07;;;;;;;;;6.25;5.00;;;;;-144.77;100.00;61770.03;4968267;28;47063;-91
2021/06/11 10:30:33;;;;;;;;;3.75;3.75;;;;;-144.77;100.00;61770.03;4957608;28;46945;-91
2021/06/11 10:32:59;;;;;;;;;4.50;4.50;;;;;-144.77;100.00;61770.03;4952657;28;47034;-91
2021/06/11 10:35:45;;;;;;;;;6.50;4.25;;;;;-144.77;100.00;61770.03;4952462;28;47102;-91
2021/06/11 10:38:28;;;;;;;;;3.50;3.50;;;;;-144.77;100.00;61770.03;4945578;28;46918;-92
2021/06/11 10:40:59;;;;;;;;;3.75;3.75;;;;;-144.77;100.00;61770.03;4959364;28;47293;-91
2021/06/11 10:43:27;;;;;;;;;4.00;3.00;;;;;-144.77;100.00;61770.03;4953215;28;48711;-94
2021/06/11 10:45:58;;;;;;;;;3.75;3.00;;;;;-144.77;100.00;61770.03;4955986;28;47081;-91
2021/06/11 10:48:25;;;;;;;;;3.50;2.50;;;;;-144.77;100.00;61770.03;4956669;28;46914;-91
2021/06/11 10:50:51;;;;;;;;;4.25;4.25;;;;;-144.77;100.00;61770.03;4957453;28;47292;-93
2021/06/11 10:53:28;;;;;;;;;5.00;5.00;;;;;-144.77;100.00;61770.03;4961781;28;48719;-92
2021/06/11 10:56:23;;;;;;;;;4.00;3.50;;;;;-144.77;100.00;61770.03;4955756;28;47161;-91
2021/06/11 10:58:49;;;;;;;;;4.00;3.25;;;;;-144.77;100.00;61770.03;4959543;28;47062;-94
2021/06/11 11:01:52;;;;;;;;;7.00;5.00;;;;;-144.77;100.00;61770.03;4958967;28;47016;-94
2021/06/11 11:04:30;;;;;;;;;3.75;3.00;;;;;-144.77;100.00;61770.03;4949678;28;49765;-92
2021/06/11 11:06:59;;;;;;;;;5.00;4.00;;;;;-144.77;100.00;61770.03;4959126;28;46784;-92
2021/06/11 11:09:51;;;;;;;;;4.25;3.00;;;;;-144.77;100.00;61770.03;4958737;28;46859;-93
2021/06/11 11:12:17;;;;;;;;;7.75;5.25;;;;;-144.77;100.00;61770.03;4955765;28;47069;-92
2021/06/11 11:14:43;;;;;;;;;5.00;4.50;;;;;-144.77;100.00;61770.03;4958738;28;49434;-92